Phoenix, Arizona
Traffic Map
Current Weather Conditions
Phoenix, Arizona
Few Clouds
Few Clouds
96°
Feels Like: 96°
Wind Chill: 96° Ceiling: Unl
Heat Index: 96° Visibility: 10mi
Dew Point: 46° Wind: 0mph
Humidity: 18% Direction: ° ()
Pressure: 29.91in Gusts: 0mph
Raw Report DataKPHX 291751Z 00000KT 10SM FEW110 36/08 A2991 RMK AO2 SLP107 T03560078 10367 20261 58006
Traffic Incident Summary
Active as of:
Severity:
Category:
InformationThere was an issue retrieving the traffic information for this location. Please try a different location or try again shortly.
Advertisements
Track Severe Weather on mobile